Time;durP1;ratioP1;P1;durP2;ratioP2;P2;SDS_P1;SDS_P2;PMS_P1;PMS_P2;Temp;Humidity;BMP_temperature;BMP_pressure;BME280_temperature;BME280_humidity;BME280_pressure;Samples;Min_cycle;Max_cycle;Signal;HPM_P1;HPM_P2
2024/03/09 00:09:41;;;;;;;37.13;19.93;;;6.10;1.00;;;;;;20696035;28;20199;-40
2024/03/09 00:19:44;;;;;;;38.72;20.73;;;6.10;1.00;;;;;;20683488;28;20519;-40
2024/03/09 00:29:45;;;;;;;37.53;19.67;;;6.10;1.00;;;;;;20694531;28;20034;-40
2024/03/09 00:39:47;;;;;;;40.70;21.67;;;6.10;1.00;;;;;;20698714;28;20061;-42
2024/03/09 00:49:47;;;;;;;39.00;20.40;;;6.00;1.00;;;;;;20690756;28;20505;-41
2024/03/09 00:59:48;;;;;;;42.30;21.47;;;6.00;1.00;;;;;;20688376;28;20456;-41
2024/03/09 01:09:49;;;;;;;43.50;21.25;;;5.90;1.00;;;;;;20687677;28;20460;-42
2024/03/09 01:19:50;;;;;;;37.90;20.70;;;5.80;1.00;;;;;;20644515;28;20116;-42
2024/03/09 01:29:54;;;;;;;42.22;21.85;;;5.70;1.00;;;;;;20691114;28;20414;-39
2024/03/09 01:39:56;;;;;;;40.55;21.05;;;5.70;1.00;;;;;;20689581;28;20489;-39
2024/03/09 01:49:57;;;;;;;42.42;21.60;;;5.50;1.00;;;;;;20680464;28;20038;-40
2024/03/09 01:59:58;;;;;;;43.38;21.17;;;5.40;1.00;;;;;;20674105;28;20038;-40
2024/03/09 02:09:59;;;;;;;42.67;21.98;;;5.30;1.00;;;;;;20672855;28;20061;-39
2024/03/09 02:19:59;;;;;;;46.23;21.90;;;5.30;1.00;;;;;;20691182;28;20224;-41
2024/03/09 02:30:00;;;;;;;44.17;22.67;;;5.20;1.00;;;;;;20676593;28;20453;-40
2024/03/09 02:40:03;;;;;;;40.05;21.13;;;5.20;1.00;;;;;;20700454;28;20074;-40
2024/03/09 02:50:04;;;;;;;41.75;20.45;;;5.10;1.00;;;;;;20703932;28;20065;-40
2024/03/09 03:00:08;;;;;;;43.45;21.17;;;5.10;1.00;;;;;;20691189;28;20049;-40
2024/03/09 03:10:10;;;;;;;41.60;20.42;;;5.10;1.00;;;;;;20687698;28;20072;-41
2024/03/09 03:20:13;;;;;;;43.67;21.48;;;5.00;1.00;;;;;;20665353;28;20041;-40
2024/03/09 03:30:15;;;;;;;41.38;20.63;;;5.00;1.00;;;;;;20700746;28;20459;-40
2024/03/09 03:40:15;;;;;;;42.53;21.50;;;4.90;1.00;;;;;;20701294;28;20853;-40
2024/03/09 03:50:16;;;;;;;42.97;21.30;;;4.90;1.00;;;;;;20698388;28;20509;-40
2024/03/09 04:00:20;;;;;;;41.42;21.17;;;4.80;1.00;;;;;;20706608;28;20045;-40
2024/03/09 04:10:21;;;;;;;40.42;20.80;;;4.60;1.00;;;;;;20636801;28;20050;-40
2024/03/09 04:20:22;;;;;;;43.80;21.87;;;4.80;1.00;;;;;;20649210;28;20068;-40
2024/03/09 04:30:23;;;;;;;42.22;21.33;;;4.80;1.00;;;;;;20697271;28;20057;-39
2024/03/09 04:40:24;;;;;;;45.25;21.63;;;4.80;1.00;;;;;;20700543;28;20525;-40
2024/03/09 04:50:28;;;;;;;44.42;21.48;;;4.80;1.00;;;;;;20649721;28;20072;-40
2024/03/09 05:00:29;;;;;;;39.80;20.73;;;4.80;1.00;;;;;;20661167;28;20125;-40
2024/03/09 05:10:30;;;;;;;42.70;21.90;;;4.80;1.00;;;;;;20647535;28;20050;-40
2024/03/09 05:20:31;;;;;;;42.33;21.40;;;4.80;1.00;;;;;;20696766;28;20042;-40
2024/03/09 05:30:32;;;;;;;41.80;21.00;;;4.70;1.00;;;;;;20694517;28;20046;-39
2024/03/09 05:40:34;;;;;;;42.85;22.20;;;4.70;1.00;;;;;;20678609;28;20081;-41
2024/03/09 05:50:36;;;;;;;43.80;21.65;;;4.70;1.00;;;;;;20669945;28;20043;-40
2024/03/09 06:00:36;;;;;;;42.53;21.20;;;4.70;1.00;;;;;;20695459;28;20065;-40
2024/03/09 06:10:37;;;;;;;39.17;20.97;;;4.80;1.00;;;;;;20710838;28;20032;-40
2024/03/09 06:20:41;;;;;;;39.17;20.38;;;4.80;1.00;;;;;;20705652;28;20046;-42
2024/03/09 06:30:42;;;;;;;42.85;20.73;;;4.80;1.00;;;;;;20709691;28;20050;-40
2024/03/09 06:40:44;;;;;;;41.55;20.58;;;4.80;1.00;;;;;;20687457;28;20564;-41
2024/03/09 06:50:45;;;;;;;44.35;21.00;;;4.90;1.00;;;;;;20702407;28;20100;-39
2024/03/09 07:00:46;;;;;;;39.88;20.88;;;4.80;1.00;;;;;;20655274;28;20042;-40
2024/03/09 07:10:47;;;;;;;38.58;20.55;;;4.90;1.00;;;;;;20648627;28;20409;-41
2024/03/09 07:20:47;;;;;;;38.20;19.15;;;5.00;1.00;;;;;;20708779;28;20548;-40
2024/03/09 07:30:48;;;;;;;39.40;18.70;;;5.10;1.00;;;;;;20702722;28;20465;-40
2024/03/09 07:40:50;;;;;;;34.60;18.90;;;5.40;1.00;;;;;;20672371;28;20046;-40
2024/03/09 07:50:51;;;;;;;36.25;18.27;;;5.70;1.00;;;;;;20661373;28;20451;-40
2024/03/09 08:00:52;;;;;;;36.80;18.25;;;6.00;1.00;;;;;;20696876;28;20054;-40
2024/03/09 08:10:53;;;;;;;34.20;19.65;;;6.20;1.00;;;;;;20650979;28;20041;-41
2024/03/09 08:20:54;;;;;;;35.90;17.38;;;6.20;1.00;;;;;;20694844;28;20038;-40
2024/03/09 08:30:54;;;;;;;34.63;17.00;;;6.30;1.00;;;;;;20670054;28;20126;-40
2024/03/09 08:40:55;;;;;;;28.02;16.60;;;6.40;1.00;;;;;;20661995;28;20473;-40
2024/03/09 08:50:59;;;;;;;34.92;17.77;;;6.60;1.00;;;;;;20674577;28;20190;-40
2024/03/09 09:01:01;;;;;;;28.75;16.40;;;7.20;1.00;;;;;;20674547;28;20419;-40
2024/03/09 09:11:02;;;;;;;36.22;17.05;;;7.60;1.00;;;;;;20641218;28;20089;-40
2024/03/09 09:21:03;;;;;;;31.17;17.55;;;8.30;1.00;;;;;;20574228;28;20046;-41
2024/03/09 09:31:03;;;;;;;27.33;16.15;;;9.00;1.00;;;;;;20625079;28;20380;-41
2024/03/09 09:41:07;;;;;;;28.23;16.38;;;9.40;1.00;;;;;;20621481;28;20049;-41
2024/03/09 09:51:12;;;;;;;27.08;15.70;;;9.80;1.00;;;;;;20647459;28;20221;-40
2024/03/09 10:01:12;;;;;;;26.73;14.95;;;10.20;1.00;;;;;;20656069;28;20050;-40
2024/03/09 10:11:17;;;;;;;23.45;14.00;;;10.50;1.00;;;;;;20647538;28;20081;-41
2024/03/09 10:21:37;;;;;;;21.75;13.98;;;10.80;1.00;;;;;;20599541;28;20070;-41
2024/03/09 10:31:42;;;;;;;20.65;12.88;;;11.00;1.00;;;;;;20675238;28;20049;-41
2024/03/09 10:41:44;;;;;;;22.13;13.43;;;11.60;1.00;;;;;;20670128;28;20528;-41
2024/03/09 10:51:50;;;;;;;23.27;14.20;;;12.40;1.00;;;;;;20642380;28;20120;-41
2024/03/09 11:01:54;;;;;;;20.00;13.02;;;12.80;1.00;;;;;;20660982;28;20662;-41
2024/03/09 11:11:57;;;;;;;19.90;13.68;;;13.20;1.00;;;;;;20662143;28;20034;-41
2024/03/09 11:21:58;;;;;;;19.17;12.57;;;13.90;1.00;;;;;;20637261;28;20124;-41
2024/03/09 11:32:05;;;;;;;23.60;14.18;;;14.20;1.00;;;;;;20693948;28;20869;-41
2024/03/09 11:42:12;;;;;;;20.13;12.20;;;13.30;1.00;;;;;;20678363;28;20042;-42
2024/03/09 11:52:14;;;;;;;17.33;11.38;;;12.80;1.00;;;;;;20682200;28;20034;-41
2024/03/09 12:02:15;;;;;;;18.77;11.57;;;12.80;1.00;;;;;;20672568;28;20635;-41
2024/03/09 12:12:15;;;;;;;20.02;11.93;;;13.10;1.00;;;;;;20677373;28;20150;-41
2024/03/09 12:22:17;;;;;;;21.97;12.47;;;12.90;1.00;;;;;;20661079;28;20042;-41
2024/03/09 12:32:19;;;;;;;18.63;12.00;;;12.80;1.00;;;;;;20624226;28;21051;-41
2024/03/09 12:42:20;;;;;;;19.27;12.70;;;12.60;1.00;;;;;;20685833;28;20050;-41
2024/03/09 12:52:21;;;;;;;19.52;11.15;;;12.70;1.00;;;;;;20656686;28;20081;-41
2024/03/09 13:02:22;;;;;;;16.30;10.77;;;13.30;1.00;;;;;;20672413;28;20137;-41
2024/03/09 13:12:24;;;;;;;15.70;10.82;;;14.90;1.00;;;;;;20656487;28;20811;-41
2024/03/09 13:22:24;;;;;;;14.98;10.10;;;15.10;1.00;;;;;;20698096;28;20038;-41
2024/03/09 13:32:25;;;;;;;17.17;10.48;;;14.40;1.00;;;;;;20687950;28;20095;-42
2024/03/09 13:42:26;;;;;;;20.50;11.30;;;14.00;1.00;;;;;;20697716;28;20041;-40
2024/03/09 13:52:26;;;;;;;15.50;10.15;;;13.70;1.00;;;;;;20693689;28;20059;-41
2024/03/09 14:02:27;;;;;;;16.77;10.52;;;13.90;1.00;;;;;;20694166;28;20053;-41
2024/03/09 14:12:28;;;;;;;16.50;9.90;;;14.80;1.00;;;;;;20666583;28;20041;-41
2024/03/09 14:22:29;;;;;;;19.08;9.90;;;15.10;1.00;;;;;;20650745;28;20046;-41
2024/03/09 14:32:37;;;;;;;16.60;10.30;;;15.00;1.00;;;;;;20711495;28;20390;-41
2024/03/09 14:42:40;;;;;;;16.13;11.45;;;14.60;1.00;;;;;;20687341;28;20478;-41
2024/03/09 14:52:40;;;;;;;15.23;10.30;;;14.10;1.00;;;;;;20688598;28;20037;-41
2024/03/09 15:02:41;;;;;;;16.95;10.68;;;14.00;1.00;;;;;;20707000;28;20445;-41
2024/03/09 15:12:44;;;;;;;16.70;10.75;;;13.90;1.00;;;;;;20688521;28;20708;-41
2024/03/09 15:22:45;;;;;;;16.17;10.57;;;14.10;1.00;;;;;;20705529;28;20038;-41
2024/03/09 15:32:45;;;;;;;17.20;11.93;;;14.10;1.00;;;;;;20694529;28;21099;-41
2024/03/09 15:42:46;;;;;;;15.95;10.23;;;13.70;1.00;;;;;;20691240;28;20189;-41
2024/03/09 15:52:47;;;;;;;17.67;12.00;;;13.60;1.00;;;;;;20660120;28;20489;-41
2024/03/09 16:02:51;;;;;;;17.88;11.60;;;13.50;1.00;;;;;;20668926;28;20554;-41
2024/03/09 16:12:53;;;;;;;19.38;12.20;;;13.50;1.00;;;;;;20685942;28;20052;-41
2024/03/09 16:23:00;;;;;;;19.00;12.27;;;13.40;1.00;;;;;;20705058;28;20041;-41
2024/03/09 16:33:04;;;;;;;17.92;11.77;;;13.30;1.00;;;;;;20703517;28;20524;-41
2024/03/09 16:43:06;;;;;;;17.65;11.82;;;13.20;1.00;;;;;;20699627;28;20098;-42
2024/03/09 16:53:17;;;;;;;19.25;12.35;;;13.10;1.00;;;;;;20686446;28;20041;-41
2024/03/09 17:03:18;;;;;;;22.42;11.90;;;13.00;1.00;;;;;;20703883;28;20073;-42
2024/03/09 17:13:22;;;;;;;19.88;12.70;;;12.80;1.00;;;;;;20699367;28;20026;-41
2024/03/09 17:23:25;;;;;;;17.83;12.02;;;12.70;1.00;;;;;;20698862;28;20077;-41
2024/03/09 17:33:26;;;;;;;20.90;13.52;;;12.50;1.00;;;;;;20699262;28;20041;-41
2024/03/09 17:43:26;;;;;;;24.98;14.35;;;12.50;1.00;;;;;;20695094;28;20572;-41
2024/03/09 17:53:29;;;;;;;22.15;14.50;;;12.40;1.00;;;;;;20683079;28;20037;-41
2024/03/09 18:03:31;;;;;;;24.33;14.80;;;12.20;1.00;;;;;;20662712;28;20274;-41
2024/03/09 18:13:32;;;;;;;24.45;15.77;;;12.10;1.00;;;;;;20713782;28;20427;-41
2024/03/09 18:23:32;;;;;;;21.93;13.87;;;11.90;1.00;;;;;;20714322;28;20495;-41
2024/03/09 18:33:37;;;;;;;23.70;14.80;;;11.90;1.00;;;;;;20693619;28;21059;-42
2024/03/09 18:43:37;;;;;;;24.25;15.27;;;11.60;1.00;;;;;;20710357;28;20042;-41
2024/03/09 18:53:44;;;;;;;24.65;15.70;;;11.50;1.00;;;;;;20667763;28;20048;-41
2024/03/09 19:03:45;;;;;;;24.83;15.00;;;11.30;1.00;;;;;;20644337;28;20054;-41
2024/03/09 19:13:46;;;;;;;24.10;15.20;;;11.20;1.00;;;;;;20655467;28;20489;-41
2024/03/09 19:23:47;;;;;;;20.80;13.98;;;11.10;1.00;;;;;;20689100;28;20065;-41
2024/03/09 19:33:49;;;;;;;26.90;15.15;;;11.10;1.00;;;;;;20686049;28;20255;-41
2024/03/09 19:43:50;;;;;;;23.98;15.63;;;11.00;1.00;;;;;;20659913;28;20124;-41
2024/03/09 19:53:50;;;;;;;24.17;14.77;;;10.90;1.00;;;;;;20695882;28;20040;-41
2024/03/09 20:03:51;;;;;;;22.35;14.70;;;10.90;1.00;;;;;;20631631;28;20645;-41
2024/03/09 20:13:52;;;;;;;23.37;14.17;;;10.90;1.00;;;;;;20700584;28;20486;-41
2024/03/09 20:23:55;;;;;;;25.77;15.05;;;10.80;1.00;;;;;;20668993;28;20453;-41
2024/03/09 20:33:56;;;;;;;23.38;14.32;;;10.80;1.00;;;;;;20691265;28;20034;-41
2024/03/09 20:43:57;;;;;;;24.92;14.88;;;10.70;1.00;;;;;;20679745;28;20120;-42
2024/03/09 20:54:02;;;;;;;24.20;14.97;;;10.60;1.00;;;;;;20674462;28;20387;-41
2024/03/09 21:04:04;;;;;;;23.27;14.23;;;10.50;1.00;;;;;;20687760;28;20133;-41
2024/03/09 21:14:05;;;;;;;24.15;14.60;;;10.60;1.00;;;;;;20639327;28;20758;-41
2024/03/09 21:24:05;;;;;;;25.17;15.20;;;10.50;1.00;;;;;;20674026;28;20490;-41
2024/03/09 21:34:08;;;;;;;23.27;13.80;;;10.40;1.00;;;;;;20701353;28;20465;-41
2024/03/09 21:44:10;;;;;;;24.77;14.73;;;10.40;1.00;;;;;;20699890;28;20055;-41
2024/03/09 21:54:13;;;;;;;22.55;14.82;;;10.30;1.00;;;;;;20681800;28;20263;-41
2024/03/09 22:04:14;;;;;;;25.50;14.50;;;10.10;1.00;;;;;;20659874;28;20177;-41
2024/03/09 22:14:15;;;;;;;26.23;15.70;;;10.00;1.00;;;;;;20656201;28;20042;-41
2024/03/09 22:24:16;;;;;;;22.30;13.43;;;10.10;1.00;;;;;;20643725;28;20038;-41
2024/03/09 22:34:17;;;;;;;25.02;15.07;;;10.00;1.00;;;;;;20679069;28;20053;-41
2024/03/09 22:44:17;;;;;;;24.98;14.48;;;10.00;1.00;;;;;;20655727;28;20054;-41
2024/03/09 22:54:20;;;;;;;24.17;14.23;;;9.90;1.00;;;;;;20661721;28;20410;-41
2024/03/09 23:04:22;;;;;;;24.75;14.55;;;10.00;1.00;;;;;;20693101;28;21902;-41
2024/03/09 23:14:22;;;;;;;23.15;14.15;;;9.80;1.00;;;;;;20670466;28;20318;-41
2024/03/09 23:24:23;;;;;;;26.13;14.45;;;9.70;1.00;;;;;;20662923;28;20407;-41
2024/03/09 23:34:24;;;;;;;21.55;13.77;;;9.70;1.00;;;;;;20628530;28;20414;-41
2024/03/09 23:44:24;;;;;;;24.02;14.15;;;9.60;1.00;;;;;;20632883;28;20045;-40
2024/03/09 23:54:25;;;;;;;23.45;14.35;;;9.60;1.00;;;;;;20670477;28;20046;-41
